createdAt,value
2023-02-13T00:01:06.609Z,6.70
2023-02-13T00:03:34.805Z,6.70
2023-02-13T00:06:02.813Z,6.70
2023-02-13T00:08:30.832Z,6.70
2023-02-13T00:10:59.609Z,6.70
2023-02-13T00:13:27.798Z,6.70
2023-02-13T00:16:01.596Z,6.60
2023-02-13T00:18:34.197Z,6.70
2023-02-13T00:21:03.611Z,6.60
2023-02-13T00:23:33.112Z,6.60
2023-02-13T00:26:02.185Z,6.60
2023-02-13T00:28:30.241Z,6.70
2023-02-13T00:31:06.614Z,6.60
2023-02-13T00:33:35.011Z,6.70
2023-02-13T00:36:07.817Z,6.70
2023-02-13T00:38:36.303Z,6.70
2023-02-13T00:41:04.742Z,6.70
2023-02-13T00:43:32.837Z,6.70
2023-02-13T00:46:01.248Z,6.70
2023-02-13T00:48:32.427Z,6.70
2023-02-13T00:51:00.603Z,6.70
2023-02-13T00:53:29.143Z,6.70
2023-02-13T00:55:57.392Z,6.70
2023-02-13T00:58:25.588Z,6.60
2023-02-13T01:00:55.662Z,6.70
2023-02-13T01:03:24.614Z,6.60
2023-02-13T01:05:54.657Z,6.60
2023-02-13T01:08:22.688Z,6.60
2023-02-13T01:10:51.254Z,6.60
2023-02-13T01:13:19.533Z,6.70
2023-02-13T01:15:48.899Z,6.70
2023-02-13T01:18:18.739Z,6.60
2023-02-13T01:20:47.039Z,6.60
2023-02-13T01:23:16.413Z,6.70
2023-02-13T01:25:44.409Z,6.60
2023-02-13T01:28:12.383Z,6.60
2023-02-13T01:30:40.471Z,6.60
2023-02-13T01:33:08.428Z,6.60
2023-02-13T01:35:36.398Z,6.60
2023-02-13T01:38:04.321Z,6.60
2023-02-13T01:40:33.662Z,6.60
2023-02-13T01:43:01.626Z,6.60
2023-02-13T01:45:31.243Z,6.50
2023-02-13T01:48:01.577Z,6.50
2023-02-13T01:50:35.050Z,6.50
2023-02-13T01:53:08.115Z,6.50
2023-02-13T01:55:43.148Z,6.50
2023-02-13T01:58:14.550Z,6.50
2023-02-13T02:00:44.047Z,6.50
2023-02-13T02:03:18.496Z,6.50
2023-02-13T02:05:47.032Z,6.50
2023-02-13T02:08:16.379Z,6.50
2023-02-13T02:10:46.698Z,6.50
2023-02-13T02:13:17.357Z,6.40
2023-02-13T02:15:46.255Z,6.40
2023-02-13T02:18:16.886Z,6.40
2023-02-13T02:21:14.771Z,6.50
2023-02-13T02:24:17.427Z,6.50
2023-02-13T02:27:07.821Z,6.50
2023-02-13T02:30:17.445Z,6.50
2023-02-13T02:33:01.948Z,6.50
2023-02-13T02:35:38.394Z,6.50
2023-02-13T02:38:18.853Z,6.50
2023-02-13T02:41:01.551Z,6.40
2023-02-13T02:43:44.977Z,6.40
2023-02-13T02:46:18.872Z,6.40
2023-02-13T02:49:12.193Z,6.40
2023-02-13T02:51:49.617Z,6.40
2023-02-13T02:54:44.079Z,6.40
2023-02-13T02:57:16.839Z,6.40
2023-02-13T03:00:01.994Z,6.40
2023-02-13T03:02:48.687Z,6.40
2023-02-13T03:05:51.930Z,6.30
2023-02-13T03:08:40.780Z,6.30
2023-02-13T03:11:26.966Z,6.30
2023-02-13T03:13:55.649Z,6.30
2023-02-13T03:16:44.381Z,6.30
2023-02-13T03:19:36.731Z,6.20
2023-02-13T03:22:23.681Z,6.20
2023-02-13T03:25:01.453Z,6.10
2023-02-13T03:27:57.924Z,6.10
2023-02-13T03:30:36.647Z,6.10
2023-02-13T03:33:16.419Z,6.10
2023-02-13T03:36:08.713Z,6.10
2023-02-13T03:38:45.576Z,6.10
2023-02-13T03:41:19.387Z,6.10
2023-02-13T03:43:59.513Z,6.10
2023-02-13T03:46:29.839Z,6.10
2023-02-13T03:49:16.932Z,6.10
2023-02-13T03:51:49.208Z,6.10
2023-02-13T03:54:37.932Z,6.10
2023-02-13T03:57:23.223Z,6.10
2023-02-13T03:59:51.490Z,6.10
2023-02-13T04:02:25.593Z,6.10
2023-02-13T04:05:00.819Z,6.20
2023-02-13T04:07:32.064Z,6.20
2023-02-13T04:10:03.799Z,6.20
2023-02-13T04:12:40.533Z,6.20
2023-02-13T04:15:13.798Z,6.10
2023-02-13T04:17:46.891Z,6.10
2023-02-13T04:20:15.619Z,6.10
2023-02-13T04:22:44.924Z,6.10
2023-02-13T04:25:16.553Z,6.10
2023-02-13T04:27:44.707Z,6.20
2023-02-13T04:30:14.066Z,6.20
2023-02-13T04:32:42.052Z,6.20
2023-02-13T04:35:11.624Z,6.20
2023-02-13T04:37:39.600Z,6.20
2023-02-13T04:40:08.873Z,6.20
2023-02-13T04:42:38.212Z,6.20
2023-02-13T04:45:06.513Z,6.20
2023-02-13T04:47:34.516Z,6.20
2023-02-13T04:50:02.665Z,6.20
2023-02-13T04:52:30.640Z,6.20
2023-02-13T04:54:58.681Z,6.20
2023-02-13T04:57:26.807Z,6.20
2023-02-13T04:59:56.153Z,6.20
2023-02-13T05:02:24.118Z,6.20
2023-02-13T05:04:52.146Z,6.20
2023-02-13T05:07:20.377Z,6.20
2023-02-13T05:09:48.359Z,6.20
2023-02-13T05:12:16.501Z,6.20
2023-02-13T05:14:44.554Z,6.20
2023-02-13T05:17:13.916Z,6.20
2023-02-13T05:19:41.908Z,6.20
2023-02-13T05:22:28.164Z,6.20
2023-02-13T05:24:56.131Z,6.30
2023-02-13T05:27:24.152Z,6.20
2023-02-13T05:29:52.142Z,6.20
2023-02-13T05:32:21.529Z,6.20
2023-02-13T05:34:49.511Z,6.20
2023-02-13T05:37:17.488Z,6.20
2023-02-13T05:39:45.430Z,6.20
2023-02-13T05:42:13.450Z,6.20
2023-02-13T05:44:41.424Z,6.20
2023-02-13T05:47:09.411Z,6.20
2023-02-13T05:49:38.733Z,6.20
2023-02-13T05:52:06.728Z,6.20
2023-02-13T05:54:34.665Z,6.20
2023-02-13T05:57:03.467Z,6.20
2023-02-13T05:59:31.540Z,6.20
2023-02-13T06:01:59.510Z,6.20
2023-02-13T06:04:27.893Z,6.20
2023-02-13T06:06:57.244Z,6.20
2023-02-13T06:09:25.554Z,6.20
2023-02-13T06:11:54.233Z,6.30
2023-02-13T06:14:23.299Z,6.20
2023-02-13T06:16:57.082Z,6.20
2023-02-13T06:19:25.370Z,6.20
2023-02-13T06:21:53.855Z,6.20
2023-02-13T06:24:23.432Z,6.10
2023-02-13T06:26:51.595Z,6.10
2023-02-13T06:29:19.856Z,6.10
2023-02-13T06:31:47.896Z,6.10
2023-02-13T06:34:16.045Z,6.20
2023-02-13T06:36:44.085Z,6.10
2023-02-13T06:39:12.084Z,6.10
2023-02-13T06:41:41.443Z,6.10
2023-02-13T06:44:09.594Z,6.10
2023-02-13T06:46:37.623Z,6.10
2023-02-13T06:49:06.207Z,6.00
2023-02-13T06:51:34.302Z,6.00
2023-02-13T06:54:02.632Z,6.00
2023-02-13T06:56:30.647Z,6.00
2023-02-13T06:59:00.360Z,6.00
2023-02-13T07:01:28.481Z,6.00
2023-02-13T07:03:56.645Z,6.00
2023-02-13T07:06:24.635Z,6.00
2023-02-13T07:08:55.980Z,6.00
2023-02-13T07:11:26.104Z,6.00
2023-02-13T07:13:54.089Z,6.00
2023-02-13T07:16:23.456Z,6.00
2023-02-13T07:18:51.533Z,6.00
2023-02-13T07:21:19.488Z,6.00
2023-02-13T07:23:47.480Z,6.00
2023-02-13T07:26:16.204Z,6.00
2023-02-13T07:28:44.533Z,6.00
2023-02-13T07:31:12.675Z,6.00
2023-02-13T07:33:42.193Z,6.00
2023-02-13T07:36:10.420Z,6.00
2023-02-13T07:38:38.490Z,6.00
2023-02-13T07:41:06.608Z,6.00
2023-02-13T07:43:34.743Z,6.00
2023-02-13T07:46:03.879Z,6.00
2023-02-13T07:48:31.853Z,6.00
2023-02-13T07:51:04.039Z,6.10
2023-02-13T07:53:32.599Z,6.00
2023-02-13T07:56:00.760Z,6.00
2023-02-13T07:58:29.818Z,6.10
2023-02-13T08:00:57.988Z,6.10
2023-02-13T08:03:26.120Z,6.10
2023-02-13T08:05:54.243Z,6.10
2023-02-13T08:08:23.776Z,6.10
2023-02-13T08:11:11.756Z,6.10
2023-02-13T08:13:40.755Z,6.10
2023-02-13T08:16:08.836Z,6.10
2023-02-13T08:18:37.277Z,6.10
2023-02-13T08:21:05.724Z,6.10
2023-02-13T08:23:35.176Z,6.10
2023-02-13T08:26:03.720Z,6.10
2023-02-13T08:28:31.766Z,6.10
2023-02-13T08:30:59.905Z,6.20
2023-02-13T08:33:28.293Z,6.20
2023-02-13T08:35:56.728Z,6.10
2023-02-13T08:38:25.071Z,6.20
2023-02-13T08:40:57.605Z,6.20
2023-02-13T08:43:26.254Z,6.20
2023-02-13T08:45:54.413Z,6.20
2023-02-13T08:48:22.490Z,6.20
2023-02-13T08:50:50.589Z,6.20
2023-02-13T08:53:18.580Z,6.20
2023-02-13T08:55:54.408Z,6.20
2023-02-13T08:58:22.735Z,6.20
2023-02-13T09:00:51.262Z,6.20
2023-02-13T09:03:19.671Z,6.30
2023-02-13T09:05:48.638Z,6.30
2023-02-13T09:08:18.621Z,6.30
2023-02-13T09:10:46.916Z,6.30
2023-02-13T09:13:16.431Z,6.30
2023-02-13T09:15:44.546Z,6.30
2023-02-13T09:18:12.579Z,6.30
2023-02-13T09:20:40.708Z,6.30
2023-02-13T09:23:08.738Z,6.40
2023-02-13T09:25:37.455Z,6.40
2023-02-13T09:28:05.708Z,6.40
2023-02-13T09:30:35.190Z,6.40
2023-02-13T09:33:03.342Z,6.40
2023-02-13T09:35:31.444Z,6.40
2023-02-13T09:38:01.782Z,6.40
2023-02-13T09:40:35.980Z,6.40
2023-02-13T09:43:09.213Z,6.40
2023-02-13T09:45:40.214Z,6.50
2023-02-13T09:48:16.848Z,6.50
2023-02-13T09:50:45.088Z,6.50
2023-02-13T09:53:21.706Z,6.50
2023-02-13T09:55:59.751Z,6.50
2023-02-13T09:58:40.622Z,6.50
2023-02-13T10:01:20.911Z,6.50
2023-02-13T10:04:05.480Z,6.50
2023-02-13T10:06:49.828Z,6.50
2023-02-13T10:09:28.733Z,6.60
2023-02-13T10:12:11.133Z,6.60
2023-02-13T10:14:48.607Z,6.60
2023-02-13T10:17:22.593Z,6.60
2023-02-13T10:19:55.330Z,6.60
2023-02-13T10:22:26.962Z,6.60
2023-02-13T10:25:00.650Z,6.60
2023-02-13T10:27:35.697Z,6.60
2023-02-13T10:30:09.598Z,6.60
2023-02-13T10:32:46.484Z,6.60
2023-02-13T10:35:23.385Z,6.60
2023-02-13T10:37:55.299Z,6.60
2023-02-13T10:40:29.736Z,6.60
2023-02-13T10:43:05.001Z,6.60
2023-02-13T10:45:50.702Z,6.60
2023-02-13T10:48:42.327Z,6.60
2023-02-13T10:51:16.568Z,6.60
2023-02-13T10:53:59.745Z,6.60
2023-02-13T10:56:34.658Z,6.60
2023-02-13T10:59:15.565Z,6.60
2023-02-13T11:01:50.244Z,6.60
2023-02-13T11:04:21.105Z,6.60
2023-02-13T11:06:59.837Z,6.60
2023-02-13T11:09:29.613Z,6.70
2023-02-13T11:11:57.857Z,6.60
2023-02-13T11:14:27.731Z,6.60
2023-02-13T11:16:58.959Z,6.60
2023-02-13T11:19:33.552Z,6.70
2023-02-13T11:22:05.946Z,6.60
2023-02-13T11:24:34.766Z,6.60
2023-02-13T11:27:09.082Z,6.60
2023-02-13T11:29:39.071Z,6.60
2023-02-13T11:32:20.471Z,6.60
2023-02-13T11:34:51.897Z,6.60
2023-02-13T11:37:25.931Z,6.60
2023-02-13T11:39:55.181Z,6.60
2023-02-13T11:42:28.659Z,6.60
2023-02-13T11:45:01.474Z,6.60
2023-02-13T11:47:36.980Z,6.60
2023-02-13T11:50:20.036Z,6.60
2023-02-13T11:52:56.104Z,6.60
2023-02-13T11:55:33.470Z,6.60
2023-02-13T11:58:04.948Z,6.70
2023-02-13T12:00:40.131Z,6.70
2023-02-13T12:03:30.239Z,6.70
2023-02-13T12:06:06.268Z,6.70
2023-02-13T12:08:36.377Z,6.70
2023-02-13T12:11:10.417Z,6.70
2023-02-13T12:13:39.885Z,6.70
2023-02-13T12:16:15.218Z,6.70
2023-02-13T12:18:47.689Z,6.70
2023-02-13T12:21:30.129Z,6.70
2023-02-13T12:24:05.139Z,6.80
2023-02-13T12:26:36.311Z,6.70
2023-02-13T12:29:22.972Z,6.70
2023-02-13T12:32:03.489Z,6.80
2023-02-13T12:35:06.383Z,6.80
2023-02-13T12:37:53.180Z,6.80
2023-02-13T12:41:02.613Z,6.80
2023-02-13T12:43:53.062Z,6.80
2023-02-13T12:46:27.222Z,6.90
2023-02-13T12:49:05.531Z,6.80
2023-02-13T12:51:45.049Z,6.80
2023-02-13T12:54:34.311Z,6.80
2023-02-13T12:57:20.782Z,6.80
2023-02-13T13:00:01.441Z,6.80
2023-02-13T13:02:48.440Z,6.80
2023-02-13T13:05:32.371Z,6.80
2023-02-13T13:08:20.105Z,6.80
2023-02-13T13:10:57.497Z,6.80
2023-02-13T13:13:39.647Z,6.80
2023-02-13T13:16:16.827Z,6.80
2023-02-13T13:18:57.454Z,6.80
2023-02-13T13:21:36.748Z,6.80
2023-02-13T13:24:11.666Z,6.80
2023-02-13T13:26:44.483Z,6.80
2023-02-13T13:29:16.701Z,6.70
2023-02-13T13:31:49.233Z,6.70
2023-02-13T13:34:23.650Z,6.80
2023-02-13T13:36:59.017Z,6.70
2023-02-13T13:39:37.369Z,6.70
2023-02-13T13:42:13.477Z,6.80
2023-02-13T13:44:54.123Z,6.70
2023-02-13T13:47:29.858Z,6.70
2023-02-13T13:49:59.957Z,6.70
2023-02-13T13:52:30.145Z,6.80
2023-02-13T13:55:00.680Z,6.70
2023-02-13T13:58:00.199Z,6.70
2023-02-13T14:00:30.598Z,6.70
2023-02-13T14:03:24.451Z,6.70
2023-02-13T14:06:01.871Z,6.70
2023-02-13T14:08:56.583Z,6.70
2023-02-13T14:11:32.193Z,6.70
2023-02-13T14:14:03.270Z,6.70
2023-02-13T14:16:43.062Z,6.70
2023-02-13T14:19:27.413Z,6.70
2023-02-13T14:21:56.971Z,6.70
2023-02-13T14:24:26.337Z,6.70
2023-02-13T14:27:05.298Z,6.80
2023-02-13T14:29:36.771Z,6.70
2023-02-13T14:32:23.831Z,6.70
2023-02-13T14:35:00.714Z,6.80
2023-02-13T14:37:37.184Z,6.70
2023-02-13T14:40:41.907Z,6.70
2023-02-13T14:43:39.040Z,6.70
2023-02-13T14:46:33.902Z,6.70
2023-02-13T14:49:08.070Z,6.70
2023-02-13T14:51:40.815Z,6.70
2023-02-13T14:54:22.224Z,6.70
2023-02-13T14:56:53.916Z,6.70
2023-02-13T14:59:26.895Z,6.70
2023-02-13T15:02:02.195Z,6.70
2023-02-13T15:04:37.044Z,6.70
2023-02-13T15:07:07.645Z,6.70
2023-02-13T15:09:39.961Z,6.70
2023-02-13T15:12:27.944Z,6.70
2023-02-13T15:14:56.302Z,6.70
2023-02-13T15:17:30.163Z,6.60
2023-02-13T15:20:05.262Z,6.60
2023-02-13T15:22:36.483Z,6.60
2023-02-13T15:25:05.499Z,6.60
2023-02-13T15:27:44.218Z,6.60
2023-02-13T15:30:21.725Z,6.60
2023-02-13T15:32:58.278Z,6.60
2023-02-13T15:35:29.045Z,6.60
2023-02-13T15:37:58.166Z,6.60
2023-02-13T15:40:28.923Z,6.60
2023-02-13T15:42:58.291Z,6.60
2023-02-13T15:45:28.310Z,6.60
2023-02-13T15:47:59.110Z,6.60
2023-02-13T15:50:31.931Z,6.60
2023-02-13T15:53:02.018Z,6.60
2023-02-13T15:55:33.692Z,6.60
2023-02-13T15:58:02.768Z,6.60
2023-02-13T16:00:34.157Z,6.70
2023-02-13T16:03:06.932Z,6.70
2023-02-13T16:05:41.513Z,6.60
2023-02-13T16:08:31.833Z,6.60
2023-02-13T16:11:21.736Z,6.60
2023-02-13T16:14:08.831Z,6.60
2023-02-13T16:16:45.746Z,6.60
2023-02-13T16:19:46.158Z,6.50
2023-02-13T16:22:25.228Z,6.50
2023-02-13T16:24:55.779Z,6.50
2023-02-13T16:27:28.548Z,6.50
2023-02-13T16:30:00.086Z,6.50
2023-02-13T16:32:30.724Z,6.50
2023-02-13T16:35:18.229Z,6.50
2023-02-13T16:37:54.052Z,6.50
2023-02-13T16:40:40.732Z,6.50
2023-02-13T16:43:51.757Z,6.50
2023-02-13T16:46:30.077Z,6.40
2023-02-13T16:49:27.196Z,6.40
2023-02-13T16:52:12.303Z,6.40
2023-02-13T16:54:49.616Z,6.40
2023-02-13T16:57:24.093Z,6.40
2023-02-13T16:59:57.071Z,6.40
2023-02-13T17:02:27.786Z,6.40
2023-02-13T17:04:59.385Z,6.40
2023-02-13T17:07:30.616Z,6.40
2023-02-13T17:10:01.406Z,6.40
2023-02-13T17:12:30.963Z,6.40
2023-02-13T17:15:00.033Z,6.40
2023-02-13T17:17:31.534Z,6.40
2023-02-13T17:19:59.952Z,6.40
2023-02-13T17:22:34.240Z,6.40
2023-02-13T17:25:03.733Z,6.40
2023-02-13T17:27:32.238Z,6.40
2023-02-13T17:30:00.314Z,6.40
2023-02-13T17:32:29.196Z,6.40
2023-02-13T17:34:57.232Z,6.40
2023-02-13T17:37:27.596Z,6.40
2023-02-13T17:39:57.290Z,6.40
2023-02-13T17:42:26.884Z,6.40
2023-02-13T17:44:55.832Z,6.40
2023-02-13T17:47:24.288Z,6.30
2023-02-13T17:49:59.159Z,6.30
2023-02-13T17:52:33.003Z,6.30
2023-02-13T17:55:02.321Z,6.20
2023-02-13T17:57:30.365Z,6.20
2023-02-13T17:59:59.258Z,6.20
2023-02-13T18:02:27.888Z,6.30
2023-02-13T18:04:55.968Z,6.30
2023-02-13T18:07:24.226Z,6.30
2023-02-13T18:09:52.300Z,6.20
2023-02-13T18:12:24.815Z,6.20
2023-02-13T18:14:54.974Z,6.20
2023-02-13T18:17:23.441Z,6.20
2023-02-13T18:19:51.623Z,6.20
2023-02-13T18:22:19.828Z,6.20
2023-02-13T18:24:48.011Z,6.20
2023-02-13T18:27:16.034Z,6.20
2023-02-13T18:29:45.471Z,6.20
2023-02-13T18:32:13.736Z,6.20
2023-02-13T18:34:41.883Z,6.20
2023-02-13T18:37:10.675Z,6.20
2023-02-13T18:39:38.737Z,6.20
2023-02-13T18:42:07.168Z,6.10
2023-02-13T18:44:35.225Z,6.10
2023-02-13T18:47:04.618Z,6.10
2023-02-13T18:49:32.999Z,6.10
2023-02-13T18:52:02.265Z,6.10
2023-02-13T18:54:30.770Z,6.10
2023-02-13T18:56:58.769Z,6.10
2023-02-13T18:59:27.321Z,6.10
2023-02-13T19:01:55.450Z,6.10
2023-02-13T19:04:25.008Z,6.10
2023-02-13T19:06:53.029Z,6.10
2023-02-13T19:09:21.163Z,6.10
2023-02-13T19:11:49.939Z,6.10
2023-02-13T19:14:18.017Z,6.00
2023-02-13T19:16:46.057Z,6.10
2023-02-13T19:19:14.138Z,6.10
2023-02-13T19:21:43.869Z,6.00
2023-02-13T19:24:15.256Z,6.00
2023-02-13T19:26:44.651Z,6.00
2023-02-13T19:29:12.660Z,6.00
2023-02-13T19:31:42.675Z,6.00
2023-02-13T19:34:10.875Z,6.00
2023-02-13T19:36:38.972Z,5.90
2023-02-13T19:39:09.027Z,5.90
2023-02-13T19:41:37.444Z,5.90
2023-02-13T19:44:05.454Z,5.90
2023-02-13T19:46:34.153Z,5.90
2023-02-13T19:49:26.095Z,5.90
2023-02-13T19:51:54.096Z,5.90
2023-02-13T19:54:23.593Z,5.90
2023-02-13T19:56:51.716Z,5.90
2023-02-13T19:59:19.675Z,5.90
2023-02-13T20:01:48.040Z,6.00
2023-02-13T20:04:16.007Z,6.00
2023-02-13T20:06:44.099Z,6.00
2023-02-13T20:09:13.980Z,6.00
2023-02-13T20:11:45.400Z,6.00
2023-02-13T20:14:14.942Z,6.00
2023-02-13T20:16:45.550Z,6.00
2023-02-13T20:19:14.683Z,6.00
2023-02-13T20:21:44.010Z,6.00
2023-02-13T20:24:12.915Z,6.00
2023-02-13T20:26:43.037Z,6.00
2023-02-13T20:29:11.132Z,6.00
2023-02-13T20:31:41.423Z,6.00
2023-02-13T20:34:11.186Z,6.00
2023-02-13T20:36:39.319Z,6.00
2023-02-13T20:39:08.901Z,6.00
2023-02-13T20:41:38.311Z,6.00
2023-02-13T20:44:11.257Z,5.90
2023-02-13T20:46:40.569Z,5.90
2023-02-13T20:49:08.663Z,5.90
2023-02-13T20:51:37.850Z,5.90
2023-02-13T20:54:06.355Z,6.00
2023-02-13T20:56:34.617Z,6.00
2023-02-13T20:59:03.288Z,6.00
2023-02-13T21:01:34.967Z,6.00
2023-02-13T21:04:03.205Z,5.90
2023-02-13T21:06:32.922Z,5.90
2023-02-13T21:09:01.292Z,5.90
2023-02-13T21:11:29.938Z,5.90
2023-02-13T21:13:58.673Z,5.90
2023-02-13T21:16:29.553Z,5.90
2023-02-13T21:19:01.265Z,5.90
2023-02-13T21:21:32.386Z,5.90
2023-02-13T21:24:03.446Z,5.90
2023-02-13T21:26:32.106Z,5.90
2023-02-13T21:29:00.615Z,5.90
2023-02-13T21:31:32.108Z,5.90
2023-02-13T21:34:03.402Z,5.90
2023-02-13T21:36:32.571Z,5.90
2023-02-13T21:39:01.145Z,5.90
2023-02-13T21:41:29.434Z,5.90
2023-02-13T21:43:57.474Z,5.90
2023-02-13T21:46:27.467Z,5.90
2023-02-13T21:48:56.996Z,5.90
2023-02-13T21:51:28.455Z,5.90
2023-02-13T21:53:56.497Z,5.90
2023-02-13T21:56:26.297Z,5.90
2023-02-13T21:58:54.460Z,5.80
2023-02-13T22:01:26.994Z,5.80
2023-02-13T22:03:59.042Z,5.80
2023-02-13T22:06:30.841Z,5.80
2023-02-13T22:08:59.867Z,5.80
2023-02-13T22:11:28.715Z,5.80
2023-02-13T22:13:57.546Z,5.80
2023-02-13T22:16:26.370Z,5.80
2023-02-13T22:18:54.485Z,5.80
2023-02-13T22:21:25.384Z,5.80
2023-02-13T22:23:55.044Z,5.80
2023-02-13T22:26:25.260Z,5.80
2023-02-13T22:28:54.073Z,5.80
2023-02-13T22:31:25.357Z,5.80
2023-02-13T22:34:03.478Z,5.80
2023-02-13T22:36:35.195Z,5.80
2023-02-13T22:39:04.678Z,5.80
2023-02-13T22:41:32.633Z,5.80
2023-02-13T22:44:00.638Z,5.80
2023-02-13T22:46:32.331Z,5.80
2023-02-13T22:49:01.170Z,5.80
2023-02-13T22:51:31.294Z,5.80
2023-02-13T22:54:00.124Z,5.80
2023-02-13T22:56:30.609Z,5.80
2023-02-13T22:58:58.946Z,5.70
2023-02-13T23:01:28.989Z,5.70
2023-02-13T23:03:57.790Z,5.70
2023-02-13T23:06:26.882Z,5.70
2023-02-13T23:08:55.363Z,5.70
2023-02-13T23:11:42.764Z,5.70
2023-02-13T23:14:12.772Z,5.70
2023-02-13T23:16:59.415Z,5.60
2023-02-13T23:19:29.696Z,5.60
2023-02-13T23:21:57.829Z,5.60
2023-02-13T23:24:26.099Z,5.50
2023-02-13T23:26:54.129Z,5.60
2023-02-13T23:29:23.493Z,5.60
2023-02-13T23:31:51.642Z,5.60
2023-02-13T23:34:19.815Z,5.60
2023-02-13T23:36:47.835Z,5.60
2023-02-13T23:39:16.392Z,5.60
2023-02-13T23:41:44.418Z,5.60
2023-02-13T23:44:12.428Z,5.60
2023-02-13T23:46:41.855Z,5.60
2023-02-13T23:49:10.988Z,5.60
2023-02-13T23:51:38.982Z,5.70
2023-02-13T23:54:07.033Z,5.70
2023-02-13T23:56:35.101Z,5.70
2023-02-13T23:59:03.444Z,5.70
